sim
Sign-in with your pilot id or email,
or register
Callsign
Passwort

Schedule Details

Flight Number: DLH2267
Departure: Marseille Provence Airport (LFML) at 05:10
Arrival: Munich Airport (EDDM) at 06:45
Route: Lufthansa Passenger Schedule. Enter filed route here before submitting Pirep.

Weather Information
Getting current METAR information for LFML 192200Z AUTO VRB09G22KT 1600 1000 R13L/1800U R31R/1300U R13R/2700U +TSRA BR SCT010/// BKN015/// BKN021/// ///CB 20/19 Q1013 TEMPO VRB20G35KT 3000 TSRA
Getting current METAR information for EDDM 192150Z VRB01KT CAVOK 10/09 Q1018 NOSIG

Schedule Frequency

Route Map